Time;durP1;ratioP1;P1;durP2;ratioP2;P2;SDS_P1;SDS_P2;PMS_P1;PMS_P2;Temp;Humidity;BMP_temperature;BMP_pressure;BME280_temperature;BME280_humidity;BME280_pressure;Samples;Min_cycle;Max_cycle;Signal;HPM_P1;HPM_P2
2023/10/02 00:02:40;;;;;;;25.45;12.37;;;;;;;21.07;55.87;99847.70;1658331;86;21323;-80
2023/10/02 00:05:52;;;;;;;30.62;13.83;;;;;;;20.98;55.96;99842.29;1657917;86;21351;-80
2023/10/02 00:09:04;;;;;;;27.22;13.58;;;;;;;21.00;55.91;99840.11;1657847;86;21984;-80
2023/10/02 00:11:40;;;;;;;24.67;13.70;;;;;;;21.00;55.74;99832.33;1658533;86;21992;-80
2023/10/02 00:14:48;;;;;;;26.65;12.93;;;;;;;20.88;55.97;99845.77;1658097;86;21350;-80
2023/10/02 00:17:57;;;;;;;34.95;13.20;;;;;;;20.82;56.16;99841.78;1657986;86;21378;-80
2023/10/02 00:21:19;;;;;;;27.13;13.18;;;;;;;20.81;56.08;99852.06;1656612;85;21319;-80
2023/10/02 00:24:25;;;;;;;22.82;12.35;;;;;;;20.81;55.98;99846.50;1656927;86;21385;-80
2023/10/02 00:27:32;;;;;;;28.90;12.33;;;;;;;20.86;55.71;99849.36;1658018;86;21350;-80
2023/10/02 00:30:38;;;;;;;25.97;13.18;;;;;;;21.11;54.89;99842.48;1657634;86;21553;-80
2023/10/02 00:33:45;;;;;;;25.55;12.60;;;;;;;21.09;54.80;99845.53;1657726;86;21365;-79
2023/10/02 00:36:53;;;;;;;29.12;12.50;;;;;;;20.91;55.05;99858.33;1656279;86;21913;-80
2023/10/02 00:39:58;;;;;;;34.63;13.90;;;;;;;20.91;55.16;99859.72;1656230;86;21389;-80
2023/10/02 00:46:34;;;;;;;24.25;12.73;;;;;;;20.79;55.29;99856.18;1657632;86;22204;-80
2023/10/02 00:49:38;;;;;;;24.77;13.10;;;;;;;20.58;55.72;99860.03;1657071;86;21370;-80
2023/10/02 00:52:40;;;;;;;35.17;14.20;;;;;;;20.60;55.75;99863.39;1657985;86;21342;-80
2023/10/02 00:55:43;;;;;;;35.03;14.43;;;;;;;20.71;55.32;99865.81;1657849;84;21369;-80
2023/10/02 00:58:54;;;;;;;26.62;13.08;;;;;;;20.72;55.15;99859.70;1661054;86;21350;-80
2023/10/02 01:01:57;;;;;;;29.05;12.07;;;;;;;20.73;55.04;99872.48;1660755;86;21688;-80
2023/10/02 01:05:06;;;;;;;31.25;12.47;;;;;;;20.85;54.67;99870.47;1660342;86;21354;-80
2023/10/02 01:08:23;;;;;;;33.08;12.55;;;;;;;20.77;54.57;99866.17;1660483;86;21369;-80
2023/10/02 01:11:20;;;;;;;29.82;11.63;;;;;;;20.71;54.76;99864.97;1659952;86;21373;-80
2023/10/02 01:17:56;;;;;;;22.15;9.93;;;;;;;20.52;55.12;99862.45;1621631;88;21401;-80
2023/10/02 01:21:18;;;;;;;18.02;9.55;;;;;;;20.51;55.08;99866.30;1624882;88;21891;-80
2023/10/02 01:24:17;;;;;;;18.17;8.83;;;;;;;20.50;55.10;99863.23;1660985;86;21374;-80
2023/10/02 01:27:23;;;;;;;25.48;9.30;;;;;;;20.57;54.91;99865.30;1660970;86;21353;-80
2023/10/02 01:30:31;;;;;;;16.87;8.63;;;;;;;20.65;54.77;99872.36;1658650;86;21341;-80
2023/10/02 01:33:37;;;;;;;19.05;8.38;;;;;;;20.65;54.66;99872.36;1659915;86;21533;-80
2023/10/02 01:36:44;;;;;;;21.12;8.00;;;;;;;20.66;54.57;99882.41;1640205;86;21590;-80
2023/10/02 01:40:24;;;;;;;16.35;7.40;;;;;;;20.81;54.17;99887.36;1659097;86;21286;-80
2023/10/02 01:43:11;;;;;;;19.12;7.78;;;;;;;20.81;53.94;99893.75;1659840;86;21339;-80
2023/10/02 01:46:07;;;;;;;21.45;7.33;;;;;;;20.58;54.53;99890.59;1668954;85;21343;-80
2023/10/02 01:49:24;;;;;;;20.88;7.78;;;;;;;20.73;54.07;99885.83;1684682;85;21335;-80
2023/10/02 01:52:21;;;;;;;25.55;7.37;;;;;;;20.81;53.64;99887.36;1621001;88;21991;-80
2023/10/02 01:55:29;;;;;;;14.10;5.92;;;;;;;20.97;53.01;99889.27;1619972;88;21370;-83
2023/10/02 01:58:35;;;;;;;14.63;5.78;;;;;;;21.05;52.55;99891.62;1641435;87;21347;-80
2023/10/02 02:04:22;;;;;;;20.50;7.08;;;;;;;21.10;52.15;99893.63;1854862;76;27991;-81
2023/10/02 02:07:30;;;;;;;12.63;5.72;;;;;;;21.00;52.24;99897.11;1748487;82;21305;-80
2023/10/02 02:10:35;;;;;;;17.55;6.15;;;;;;;20.94;52.08;99896.74;1764531;81;21312;-80
2023/10/02 02:13:44;;;;;;;19.73;5.55;;;;;;;20.97;52.04;99894.83;1747112;82;21313;-80
2023/10/02 02:16:50;;;;;;;16.37;5.50;;;;;;;20.97;51.84;99902.33;1744484;81;21328;-80
2023/10/02 02:20:06;;;;;;;20.40;6.10;;;;;;;20.79;52.13;99899.26;1745551;82;21313;-80
2023/10/02 02:23:07;;;;;;;17.00;6.08;;;;;;;20.70;52.32;99904.94;1745118;82;21369;-81
2023/10/02 02:26:21;;;;;;;16.45;5.97;;;;;;;20.76;52.11;99903.95;1745699;82;21363;-80
2023/10/02 02:29:26;;;;;;;14.47;5.60;;;;;;;20.49;52.80;99899.05;1745511;81;21329;-80
2023/10/02 02:32:52;;;;;;;21.90;5.45;;;;;;;20.33;53.07;99904.02;1760429;81;21609;-80
2023/10/02 02:36:05;;;;;;;21.73;5.17;;;;;;;20.31;53.15;99907.58;1761770;81;21311;-80
2023/10/02 02:39:16;;;;;;;20.40;6.25;;;;;;;20.35;52.97;99895.72;1761100;81;21342;-81
2023/10/02 02:42:24;;;;;;;17.60;5.80;;;;;;;20.38;52.84;99904.95;1760880;81;21945;-80
2023/10/02 02:45:32;;;;;;;20.37;5.67;;;;;;;20.15;53.33;99904.53;1765403;80;21929;-80
2023/10/02 02:48:43;;;;;;;16.20;6.90;;;;;;;20.13;53.38;99908.08;1744549;82;21348;-81
2023/10/02 02:51:48;;;;;;;16.77;5.28;;;;;;;20.21;53.18;99908.23;1745164;82;21317;-80
2023/10/02 02:55:05;;;;;;;12.80;5.37;;;;;;;20.34;52.81;99914.03;1745073;82;21360;-81
2023/10/02 02:58:07;;;;;;;12.95;5.17;;;;;;;20.19;53.17;99909.59;1746637;82;21844;-81
2023/10/02 03:01:29;;;;;;;22.00;6.28;;;;;;;20.15;53.20;99907.30;1746010;81;21364;-80
2023/10/02 03:04:33;;;;;;;16.32;5.65;;;;;;;20.23;52.98;99902.42;1737145;82;21920;-80
2023/10/02 03:07:39;;;;;;;11.63;5.40;;;;;;;20.21;52.92;99908.23;1732449;82;21325;-80
2023/10/02 03:10:46;;;;;;;21.37;5.85;;;;;;;20.24;52.84;99898.58;1732126;82;21348;-80
2023/10/02 03:14:07;;;;;;;15.28;6.17;;;;;;;20.28;52.57;99899.22;1730463;82;21325;-80
2023/10/02 03:17:28;;;;;;;23.27;5.75;;;;;;;20.35;52.23;99892.10;1724568;83;21329;-80
2023/10/02 03:20:22;;;;;;;14.23;5.75;;;;;;;20.18;52.72;99897.62;1724181;83;22240;-81
2023/10/02 03:23:18;;;;;;;12.65;5.72;;;;;;;20.02;53.02;99899.83;1724145;83;21976;-80
2023/10/02 03:26:52;;;;;;;11.22;5.72;;;;;;;20.02;53.02;99903.98;1724296;83;21337;-80
2023/10/02 03:29:36;;;;;;;14.83;5.92;;;;;;;20.02;53.01;99906.77;1725458;83;21849;-80
2023/10/02 03:32:45;;;;;;;19.00;5.87;;;;;;;20.05;52.87;99906.28;1731334;83;21321;-80
2023/10/02 03:36:08;;;;;;;12.03;4.40;;;;;;;20.01;52.80;99911.47;1732822;83;21297;-80
2023/10/02 03:39:23;;;;;;;22.40;6.12;;;;;;;19.98;52.87;99906.41;1732499;82;21876;-80
2023/10/02 03:42:14;;;;;;;13.70;5.17;;;;;;;20.03;52.74;99902.34;1731842;83;21334;-80
2023/10/02 03:45:38;;;;;;;16.23;5.20;;;;;;;19.98;52.79;99913.90;1726904;83;21992;-80
2023/10/02 03:48:28;;;;;;;10.95;5.17;;;;;;;20.15;52.30;99912.02;1731044;83;21325;-80
2023/10/02 03:51:37;;;;;;;14.35;5.30;;;;;;;19.70;53.37;99910.55;1731436;82;21905;-80
2023/10/02 03:54:45;;;;;;;13.90;5.22;;;;;;;19.71;53.49;99923.33;1730616;83;21338;-80
2023/10/02 03:57:55;;;;;;;17.35;5.58;;;;;;;19.77;53.25;99916.27;1729835;83;21333;-81
2023/10/02 04:01:00;;;;;;;11.63;4.87;;;;;;;19.75;53.21;99905.95;1732286;82;21306;-80
2023/10/02 04:04:19;;;;;;;23.98;6.03;;;;;;;19.91;52.75;99912.67;1731656;82;21806;-81
2023/10/02 04:07:12;;;;;;;13.30;4.80;;;;;;;19.79;53.05;99927.12;1717961;83;21733;-80
2023/10/02 04:10:19;;;;;;;16.50;5.55;;;;;;;19.80;53.01;99934.34;1719218;83;21748;-80
2023/10/02 04:13:28;;;;;;;12.93;4.85;;;;;;;19.91;52.67;99929.32;1719156;83;21345;-80
2023/10/02 04:16:35;;;;;;;13.48;5.22;;;;;;;20.09;52.20;99937.46;1718967;83;21318;-80
2023/10/02 04:19:35;;;;;;;16.77;5.03;;;;;;;20.11;52.04;99944.14;1717865;82;21409;-80
2023/10/02 04:22:40;;;;;;;10.53;5.00;;;;;;;20.20;51.86;99946.82;1719553;83;21345;-80
2023/10/02 04:25:45;;;;;;;20.37;5.55;;;;;;;20.20;51.61;99945.98;1718569;83;21373;-80
2023/10/02 04:32:18;;;;;;;14.55;5.05;;;;;;;20.34;51.14;99955.69;1719168;83;21317;-80
2023/10/02 04:38:55;;;;;;;22.45;4.83;;;;;;;20.23;51.13;99967.16;1717947;83;22511;-80
2023/10/02 04:45:25;;;;;;;8.70;3.95;;;;;;;20.52;50.36;99966.62;1717625;83;21314;-80
2023/10/02 04:48:38;;;;;;;11.33;4.53;;;;;;;20.46;50.50;99964.80;1718141;83;21716;-80
2023/10/02 04:51:44;;;;;;;12.43;4.87;;;;;;;20.45;50.41;99977.00;1717984;83;21346;-81
2023/10/02 04:55:04;;;;;;;16.27;4.53;;;;;;;20.37;50.34;99987.98;1718373;83;21952;-81
2023/10/02 04:57:52;;;;;;;10.82;4.70;;;;;;;20.62;50.02;99984.03;1718734;83;21357;-80
2023/10/02 05:04:18;;;;;;;10.88;4.60;;;;;;;20.75;49.46;99992.05;1716982;83;21290;-80
2023/10/02 05:07:20;;;;;;;15.40;4.75;;;;;;;20.88;49.19;99999.20;1722664;82;21366;-80
2023/10/02 05:10:28;;;;;;;14.68;3.90;;;;;;;21.08;48.73;100000.95;1723104;82;21310;-80
2023/10/02 05:13:53;;;;;;;17.00;4.72;;;;;;;21.15;48.64;99998.83;1723498;83;21338;-80
2023/10/02 05:16:51;;;;;;;;;;;;;;;21.29;48.35;100012.39;1714270;83;21306;-80
2023/10/02 05:20:01;;;;;;;13.03;4.40;;;;;;;21.36;48.05;100013.08;1710260;82;20295;-80
2023/10/02 05:23:10;;;;;;;13.57;4.23;;;;;;;21.47;47.99;100002.42;1706193;83;21217;-80
2023/10/02 05:26:32;;;;;;;14.80;4.20;;;;;;;21.66;47.52;100000.19;1715600;83;22010;-80
2023/10/02 05:29:36;;;;;;;16.55;4.53;;;;;;;21.71;47.17;100010.00;1751189;81;21309;-80
2023/10/02 05:32:43;;;;;;;15.35;4.50;;;;;;;21.88;46.76;100016.92;1717981;81;21229;-80
2023/10/02 05:35:53;;;;;;;13.28;4.70;;;;;;;21.92;46.50;100016.67;1757315;79;21318;-80
2023/10/02 05:39:28;;;;;;;16.23;4.60;;;;;;;21.95;46.27;100013.39;1755678;81;21296;-80
2023/10/02 05:42:14;;;;;;;9.85;4.70;;;;;;;22.11;46.02;100015.81;1759982;81;22421;-79
2023/10/02 05:45:37;;;;;;;15.60;4.62;;;;;;;22.05;45.99;100016.85;1762090;81;21771;-80
2023/10/02 05:48:31;;;;;;;28.85;5.53;;;;;;;22.10;45.88;100015.52;1755685;79;21283;-80
2023/10/02 05:51:47;;;;;;;15.93;4.50;;;;;;;22.16;45.82;100016.77;1761798;81;21299;-81
2023/10/02 05:54:55;;;;;;;10.10;4.22;;;;;;;21.81;46.52;100021.27;1763326;79;21277;-81
2023/10/02 05:58:03;;;;;;;13.20;4.90;;;;;;;21.78;46.67;100013.98;1757480;79;21276;-81
2023/10/02 06:01:34;;;;;;;15.85;4.40;;;;;;;21.90;46.57;100015.55;1767028;79;21942;-80
2023/10/02 06:04:23;;;;;;;13.75;4.83;;;;;;;21.84;46.42;100018.54;1771549;79;21574;-82
2023/10/02 06:07:43;;;;;;;16.93;4.87;;;;;;;21.98;46.25;100013.44;1766216;79;21624;-81
2023/10/02 06:10:44;;;;;;;12.85;3.98;;;;;;;22.06;46.01;100015.19;1778094;79;21244;-80
2023/10/02 06:13:48;;;;;;;17.40;4.70;;;;;;;22.13;45.83;100014.49;1780750;79;21890;-80
2023/10/02 06:16:53;;;;;;;11.63;4.75;;;;;;;22.14;45.84;100018.95;1776895;79;21255;-80
2023/10/02 06:19:53;;;;;;;15.90;6.00;;;;;;;22.11;45.95;100019.98;1776544;79;21251;-81
2023/10/02 06:23:19;;;;;;;16.93;5.10;;;;;;;21.96;46.17;100026.20;1778274;79;22266;-80
2023/10/02 06:26:19;;;;;;;17.55;4.70;;;;;;;22.02;46.08;100036.33;1780576;79;21271;-80
2023/10/02 06:29:24;;;;;;;14.73;4.58;;;;;;;22.02;46.04;100036.33;1772291;79;21283;-81
2023/10/02 06:32:32;;;;;;;14.80;4.85;;;;;;;22.16;45.91;100039.05;1777162;79;21252;-81
2023/10/02 06:35:44;;;;;;;8.00;4.10;;;;;;;22.31;45.74;100037.00;1775001;79;21243;-80
2023/10/02 06:38:48;;;;;;;15.30;4.37;;;;;;;22.09;46.29;100039.75;1777379;79;21295;-80
2023/10/02 06:42:04;;;;;;;16.52;4.37;;;;;;;22.17;45.87;100067.19;1775332;79;21336;-79
2023/10/02 06:45:15;;;;;;;13.55;5.00;;;;;;;22.31;45.64;100045.91;1774830;79;21334;-81
2023/10/02 06:48:20;;;;;;;11.97;4.30;;;;;;;22.08;46.20;100047.81;1771398;79;21330;-80
2023/10/02 06:51:25;;;;;;;13.38;4.58;;;;;;;22.07;46.39;100042.52;1776496;79;21286;-80
2023/10/02 06:54:33;;;;;;;18.40;4.83;;;;;;;22.27;45.89;100055.89;1781914;79;21339;-80
2023/10/02 06:57:49;;;;;;;15.72;5.10;;;;;;;22.58;45.40;100045.92;1775298;79;21307;-79
2023/10/02 07:01:01;;;;;;;12.33;5.08;;;;;;;22.62;45.25;100051.27;1777808;79;21303;-80
2023/10/02 07:04:10;;;;;;;9.80;4.03;;;;;;;22.71;45.05;100058.90;1781263;79;21284;-80
2023/10/02 07:07:20;;;;;;;18.60;4.83;;;;;;;22.87;44.63;100056.30;1746301;81;21315;-80
2023/10/02 07:10:24;;;;;;;15.35;5.05;;;;;;;23.18;43.92;100051.30;1721432;82;22960;-80
2023/10/02 07:13:31;;;;;;;12.20;4.33;;;;;;;23.35;43.33;100058.71;1731851;81;21343;-80
2023/10/02 07:16:39;;;;;;;17.57;4.25;;;;;;;23.36;42.87;100059.83;1727372;81;22201;-80
2023/10/02 07:19:50;;;;;;;14.38;3.98;;;;;;;23.38;42.62;100068.80;1726283;81;21292;-80
2023/10/02 07:23:09;;;;;;;13.00;4.40;;;;;;;23.58;42.31;100063.91;1707097;81;21324;-80
2023/10/02 07:26:09;;;;;;;13.78;4.33;;;;;;;23.62;42.14;100066.98;1743795;81;21264;-79
2023/10/02 07:29:17;;;;;;;16.10;4.78;;;;;;;23.93;41.62;100072.27;1744409;80;21971;-81
2023/10/02 07:32:15;;;;;;;13.90;4.47;;;;;;;23.92;41.59;100067.80;1735088;81;21309;-80
2023/10/02 07:35:21;;;;;;;17.65;5.17;;;;;;;23.99;41.20;100072.56;1738009;81;21321;-81
2023/10/02 07:37:59;;;;;;;12.47;4.90;;;;;;;24.06;40.88;100073.73;1742934;81;21301;-80
2023/10/02 07:40:53;;;;;;;12.05;4.45;;;;;;;24.18;40.77;100078.00;1734205;81;21302;-80
2023/10/02 07:43:42;;;;;;;16.57;4.53;;;;;;;23.93;40.83;100094.61;1737245;81;21302;-81
2023/10/02 07:46:36;;;;;;;13.32;4.92;;;;;;;24.13;40.60;100089.13;1702358;82;21887;-81
2023/10/02 07:49:48;;;;;;;15.65;5.08;;;;;;;24.34;40.29;100097.08;1717723;82;21321;-80
2023/10/02 07:52:54;;;;;;;16.55;4.30;;;;;;;24.47;39.79;100091.02;1717187;82;21327;-82
2023/10/02 07:56:02;;;;;;;13.20;4.03;;;;;;;24.35;39.72;100092.32;1716320;82;21290;-80
2023/10/02 07:59:09;;;;;;;10.38;4.37;;;;;;;24.46;39.54;100089.88;1738314;81;21290;-79
2023/10/02 08:02:27;;;;;;;17.77;4.40;;;;;;;24.63;39.04;100097.50;1714857;82;21316;-80
2023/10/02 08:05:31;;;;;;;14.73;3.40;;;;;;;24.70;38.77;100100.02;1716510;82;21321;-81
2023/10/02 08:08:38;;;;;;;14.33;3.83;;;;;;;24.77;38.85;100091.39;1705297;82;21379;-81
2023/10/02 08:11:50;;;;;;;17.42;4.33;;;;;;;25.06;38.38;100091.73;1701318;83;21334;-81
2023/10/02 08:14:52;;;;;;;23.87;4.50;;;;;;;25.19;37.50;100091.23;1706819;82;21281;-81
2023/10/02 08:21:07;;;;;;;20.32;4.25;;;;;;;25.45;36.81;100103.26;1725241;81;22359;-81
2023/10/02 08:24:15;;;;;;;20.77;4.35;;;;;;;25.39;36.36;100105.22;1727463;82;21325;-81
2023/10/02 08:27:21;;;;;;;19.92;4.15;;;;;;;25.47;36.10;100113.64;1730497;82;21323;-81
2023/10/02 08:30:31;;;;;;;21.45;4.65;;;;;;;25.55;35.65;100111.69;1726613;81;21201;-80
2023/10/02 08:33:43;;;;;;;15.55;3.62;;;;;;;25.57;35.47;100112.23;1731265;81;21198;-79
2023/10/02 08:36:49;;;;;;;9.60;3.80;;;;;;;25.48;34.58;100116.71;1729429;82;21309;-81
2023/10/02 08:39:56;;;;;;;26.93;3.75;;;;;;;25.24;34.75;100122.02;1729756;82;21337;-81
2023/10/02 08:43:05;;;;;;;14.87;4.53;;;;;;;24.97;35.18;100111.02;1731220;81;21804;-81
2023/10/02 08:46:25;;;;;;;35.08;4.15;;;;;;;24.89;35.54;100118.53;1730816;81;21321;-81
2023/10/02 08:49:31;;;;;;;14.78;4.05;;;;;;;24.79;35.31;100114.31;1727695;81;21332;-80
2023/10/02 08:52:49;;;;;;;12.25;3.98;;;;;;;24.98;34.99;100119.68;1728383;81;21895;-79
2023/10/02 08:56:21;;;;;;;14.60;4.28;;;;;;;24.95;34.84;100125.84;1738063;81;21291;-80
2023/10/02 08:59:35;;;;;;;11.08;4.15;;;;;;;24.99;34.81;100124.19;1722975;81;21154;-80
2023/10/02 09:02:40;;;;;;;18.62;4.05;;;;;;;25.00;34.91;100125.86;1733146;81;21304;-79
2023/10/02 09:05:46;;;;;;;18.62;4.05;;;;;;;24.98;35.10;100126.67;1729641;82;21313;-80
2023/10/02 09:12:22;;;;;;;20.02;4.00;;;;;;;24.96;34.65;100113.53;1722885;82;21341;-80
2023/10/02 09:15:37;;;;;;;17.87;4.15;;;;;;;25.02;34.46;100126.41;1718435;82;21867;-80
2023/10/02 09:22:07;;;;;;;14.45;4.42;;;;;;;24.93;34.73;100128.06;1670736;84;21233;-80
2023/10/02 09:25:12;;;;;;;13.35;4.60;;;;;;;25.05;34.57;100120.27;1727043;81;21307;-81
2023/10/02 09:27:58;;;;;;;16.93;4.65;;;;;;;25.00;34.69;100118.86;1706868;83;21892;-79
2023/10/02 09:31:14;;;;;;;13.40;4.08;;;;;;;25.30;33.75;100120.05;1696067;84;21339;-80
2023/10/02 09:33:46;;;;;;;;;;;;;;;25.43;33.28;100113.34;1714038;83;21318;-80
2023/10/02 09:36:52;;;;;;;14.03;4.22;;;;;;;25.41;33.01;100128.20;1704391;83;21075;-80
2023/10/02 09:39:51;;;;;;;21.15;4.55;;;;;;;25.35;32.42;100120.06;1711572;83;21364;-80
2023/10/02 09:43:05;;;;;;;18.73;4.37;;;;;;;25.40;32.25;100122.30;1684966;83;21315;-80
2023/10/02 09:46:29;;;;;;;14.10;4.55;;;;;;;25.38;31.57;100123.71;1718286;83;21947;-80
2023/10/02 09:49:36;;;;;;;10.40;4.35;;;;;;;25.32;31.46;100128.47;1692101;83;21288;-81
2023/10/02 09:52:47;;;;;;;18.57;4.53;;;;;;;25.46;31.12;100113.36;1716982;82;21278;-80
2023/10/02 09:56:18;;;;;;;19.40;5.58;;;;;;;25.38;31.18;100130.14;1721849;82;21655;-80
2023/10/02 09:59:24;;;;;;;23.47;4.70;;;;;;;25.48;30.77;100107.75;1728049;82;21884;-80
2023/10/02 10:05:46;;;;;;;20.45;4.40;;;;;;;25.57;30.38;100105.80;1725669;82;21865;-80
2023/10/02 10:09:20;;;;;;;19.82;5.42;;;;;;;25.57;29.88;100111.39;1725719;82;21282;-81
2023/10/02 10:12:50;;;;;;;13.28;5.12;;;;;;;25.61;29.71;100123.16;1723388;82;21296;-81
2023/10/02 10:15:40;;;;;;;15.93;4.28;;;;;;;25.62;29.59;100123.43;1727324;83;21301;-81
2023/10/02 10:22:57;;;;;;;14.00;4.37;;;;;;;25.52;29.25;100103.00;1719266;83;21309;-82
2023/10/02 10:26:07;;;;;;;22.52;5.60;;;;;;;25.80;28.04;100112.81;1720659;83;21361;-82
2023/10/02 10:30:09;;;;;;;19.15;5.28;;;;;;;25.83;27.45;100096.83;1716923;82;21317;-80
2023/10/02 10:32:59;;;;;;;16.57;5.37;;;;;;;25.80;27.46;100111.41;1617378;87;21240;-80
2023/10/02 10:36:13;;;;;;;17.23;5.55;;;;;;;25.74;27.33;100096.55;1609751;87;21292;-80
2023/10/02 10:39:30;;;;;;;17.48;5.30;;;;;;;25.87;27.27;100109.15;1720762;82;21270;-80
2023/10/02 10:42:29;;;;;;;16.27;5.53;;;;;;;25.85;26.72;100099.64;1700448;83;21306;-81
2023/10/02 10:45:38;;;;;;;19.17;6.37;;;;;;;25.98;26.73;100094.02;1713578;83;21298;-80
2023/10/02 10:48:48;;;;;;;21.93;5.50;;;;;;;25.90;26.50;100094.02;1714518;82;21325;-80
2023/10/02 10:51:56;;;;;;;23.07;5.72;;;;;;;25.84;26.38;100094.33;1703989;83;21334;-80
2023/10/02 10:55:04;;;;;;;16.32;5.37;;;;;;;25.85;26.53;100111.41;1682543;82;21842;-81
2023/10/02 10:58:11;;;;;;;25.15;6.72;;;;;;;25.93;26.45;100115.88;1718278;82;21361;-80
2023/10/02 11:01:17;;;;;;;16.90;5.08;;;;;;;25.73;26.59;100111.09;1764655;80;21327;-80
2023/10/02 11:04:29;;;;;;;18.85;5.37;;;;;;;25.86;26.63;100095.70;1757718;79;21298;-81
2023/10/02 11:07:37;;;;;;;23.05;5.33;;;;;;;26.02;26.68;100102.14;1764247;80;21292;-80
2023/10/02 11:10:43;;;;;;;15.83;4.70;;;;;;;25.97;26.83;100109.99;1753782;79;21177;-80
2023/10/02 11:14:01;;;;;;;15.32;4.67;;;;;;;26.03;26.23;100114.19;1719974;82;21339;-80
2023/10/02 11:17:08;;;;;;;20.40;5.58;;;;;;;25.85;26.40;100103.84;1758293;81;21284;-80
2023/10/02 11:20:16;;;;;;;16.85;4.87;;;;;;;25.87;26.41;100102.98;1762621;80;21846;-80
2023/10/02 11:23:23;;;;;;;13.00;4.65;;;;;;;25.88;26.31;100101.05;1770196;80;21319;-80
2023/10/02 11:26:29;;;;;;;14.87;4.53;;;;;;;25.75;26.60;100102.42;1724967;82;21307;-81
2023/10/02 11:29:40;;;;;;;19.57;5.40;;;;;;;25.87;26.45;100102.14;1763068;81;22226;-80
2023/10/02 11:33:03;;;;;;;12.43;5.42;;;;;;;26.02;25.65;100102.14;1720271;82;22312;-80
2023/10/02 11:36:11;;;;;;;16.37;5.42;;;;;;;25.81;26.09;100108.89;1763588;80;21738;-80
2023/10/02 11:39:20;;;;;;;17.80;5.62;;;;;;;25.87;26.18;100103.55;1760730;81;21295;-80
2023/10/02 11:42:26;;;;;;;30.05;5.75;;;;;;;25.56;26.09;100106.36;1764025;80;21335;-81
2023/10/02 11:45:36;;;;;;;16.02;5.47;;;;;;;25.45;26.32;100101.86;1761938;79;21906;-81
2023/10/02 11:48:40;;;;;;;17.92;5.10;;;;;;;25.43;26.25;100105.52;1757754;80;21307;-81
2023/10/02 11:51:46;;;;;;;15.53;5.40;;;;;;;25.59;26.40;100098.78;1765528;80;21854;-81
2023/10/02 11:54:54;;;;;;;11.35;4.97;;;;;;;25.71;25.78;100110.55;1765329;80;22262;-81
2023/10/02 11:57:59;;;;;;;13.80;5.35;;;;;;;25.67;25.82;100106.62;1756588;79;21308;-81
2023/10/02 12:01:06;;;;;;;17.32;6.15;;;;;;;25.58;25.87;100118.67;1765388;80;21320;-81
2023/10/02 12:04:13;;;;;;;18.40;5.62;;;;;;;25.52;25.92;100120.64;1763950;80;21272;-80
2023/10/02 12:07:21;;;;;;;15.15;6.40;;;;;;;25.54;25.76;100111.38;1765024;81;21204;-80
2023/10/02 12:10:28;;;;;;;11.97;5.65;;;;;;;25.59;25.48;100121.18;1763519;80;21300;-80
2023/10/02 12:13:34;;;;;;;17.57;5.28;;;;;;;25.57;25.45;100112.80;1767915;80;21303;-80
2023/10/02 12:16:41;;;;;;;18.30;6.25;;;;;;;25.58;25.70;100118.11;1773953;80;21256;-82
2023/10/02 12:19:46;;;;;;;15.53;5.85;;;;;;;25.71;25.96;100123.71;1776520;80;21272;-81
2023/10/02 12:22:53;;;;;;;17.60;6.75;;;;;;;25.56;25.76;100116.16;1770463;80;21306;-81
2023/10/02 12:25:59;;;;;;;27.67;6.70;;;;;;;25.48;25.96;100119.52;1774433;80;21288;-81
2023/10/02 12:29:04;;;;;;;19.32;6.45;;;;;;;25.50;26.11;100122.86;1771768;80;21323;-81
2023/10/02 12:32:11;;;;;;;19.87;6.60;;;;;;;25.37;26.35;100122.03;1770223;80;21161;-81
2023/10/02 12:35:17;;;;;;;13.68;6.75;;;;;;;25.37;26.36;100124.27;1775011;80;21839;-80
2023/10/02 12:38:26;;;;;;;17.05;6.00;;;;;;;25.31;26.56;100132.92;1780463;79;21319;-81
2023/10/02 12:41:34;;;;;;;14.95;5.62;;;;;;;25.49;26.36;100139.38;1735064;82;21311;-81
2023/10/02 12:44:41;;;;;;;17.80;6.92;;;;;;;25.44;25.97;100163.18;1733020;82;21326;-81
2023/10/02 12:47:48;;;;;;;12.65;5.95;;;;;;;25.39;26.23;100144.42;1730741;82;21583;-81
2023/10/02 12:50:55;;;;;;;15.05;6.35;;;;;;;25.46;26.53;100142.77;1728553;83;21341;-81
2023/10/02 12:54:04;;;;;;;19.30;7.95;;;;;;;25.46;26.31;100156.77;1725923;83;21303;-81
2023/10/02 12:57:11;;;;;;;15.40;6.50;;;;;;;25.43;26.20;100150.31;1716140;83;21314;-81
2023/10/02 13:00:20;;;;;;;17.98;6.30;;;;;;;25.42;26.29;100152.83;1710828;83;21314;-80
2023/10/02 13:03:26;;;;;;;17.55;5.97;;;;;;;25.39;26.14;100136.58;1724272;83;21329;-80
2023/10/02 13:06:32;;;;;;;19.10;7.28;;;;;;;25.59;26.13;100135.75;1728716;83;21343;-80
2023/10/02 13:09:38;;;;;;;19.67;6.30;;;;;;;25.51;26.35;100148.36;1729306;83;21884;-81
2023/10/02 13:12:45;;;;;;;14.30;5.90;;;;;;;25.43;26.08;100162.34;1729022;83;21423;-81
2023/10/02 13:15:51;;;;;;;16.93;6.70;;;;;;;25.51;26.18;100142.77;1730754;82;21404;-80
2023/10/02 13:18:57;;;;;;;15.68;6.17;;;;;;;25.53;25.94;100142.47;1731033;83;21389;-81
2023/10/02 13:22:03;;;;;;;17.50;7.17;;;;;;;25.48;25.62;100149.75;1731560;83;21341;-80
2023/10/02 13:25:11;;;;;;;13.08;6.30;;;;;;;25.21;25.72;100142.15;1731260;83;21329;-81
2023/10/02 13:28:18;;;;;;;16.50;7.15;;;;;;;25.08;26.05;100153.87;1730639;83;21365;-80
2023/10/02 13:31:24;;;;;;;16.97;7.05;;;;;;;25.11;25.84;100149.13;1724275;83;21318;-80
2023/10/02 13:34:31;;;;;;;15.10;7.05;;;;;;;24.66;26.43;100152.05;1723227;83;21359;-80
2023/10/02 13:37:36;;;;;;;12.05;6.50;;;;;;;24.78;26.44;100161.59;1724403;83;21303;-81
2023/10/02 13:40:42;;;;;;;17.40;5.97;;;;;;;24.69;26.59;100142.53;1725155;83;21327;-80
2023/10/02 13:43:52;;;;;;;20.32;6.70;;;;;;;24.82;26.21;100152.37;1723932;83;21347;-81
2023/10/02 13:46:59;;;;;;;19.92;8.45;;;;;;;24.71;26.49;100161.86;1701786;84;21868;-80
2023/10/02 13:50:08;;;;;;;19.27;7.10;;;;;;;24.55;26.58;100160.92;1702549;84;21365;-80
2023/10/02 13:53:15;;;;;;;16.45;6.30;;;;;;;24.48;26.53;100174.33;1702768;84;21723;-80
2023/10/02 13:56:25;;;;;;;24.57;7.17;;;;;;;24.54;26.89;100168.20;1703035;84;21339;-81
2023/10/02 13:59:31;;;;;;;13.95;5.62;;;;;;;24.63;26.88;100182.78;1707163;83;21322;-80
2023/10/02 14:02:38;;;;;;;15.70;5.80;;;;;;;24.54;26.48;100173.23;1730810;83;21325;-80
2023/10/02 14:05:41;;;;;;;16.23;5.85;;;;;;;24.32;26.85;100181.73;1732014;83;22011;-80
2023/10/02 14:08:49;;;;;;;27.87;6.25;;;;;;;24.26;26.96;100179.19;1732594;83;21349;-80
2023/10/02 14:11:55;;;;;;;29.10;6.87;;;;;;;24.25;26.89;100174.72;1732485;83;21314;-80
2023/10/02 14:15:03;;;;;;;18.90;6.80;;;;;;;24.23;26.63;100194.56;1732517;83;21314;-80
2023/10/02 14:18:10;;;;;;;16.15;6.30;;;;;;;24.16;26.92;100185.00;1724784;82;21337;-80
2023/10/02 14:21:16;;;;;;;27.10;8.15;;;;;;;24.12;26.65;100183.84;1724391;83;21314;-80
2023/10/02 14:24:22;;;;;;;18.67;7.10;;;;;;;24.11;26.68;100189.16;1724760;83;21938;-80
2023/10/02 14:27:29;;;;;;;21.90;7.75;;;;;;;24.13;26.90;100196.70;1725507;83;21631;-80
2023/10/02 14:30:35;;;;;;;16.70;6.60;;;;;;;23.93;27.23;100206.33;1725653;83;21322;-80
2023/10/02 14:33:43;;;;;;;24.57;6.50;;;;;;;24.05;27.34;100201.41;1725209;83;21353;-80
2023/10/02 14:36:50;;;;;;;15.45;6.70;;;;;;;23.87;27.68;100201.83;1724299;83;21314;-80
2023/10/02 14:39:57;;;;;;;22.05;6.05;;;;;;;23.82;27.73;100223.57;1724027;83;22670;-80
2023/10/02 14:43:04;;;;;;;23.35;6.78;;;;;;;23.82;27.65;100222.73;1704987;83;21286;-80
2023/10/02 14:46:11;;;;;;;19.70;5.60;;;;;;;23.85;27.60;100217.98;1693970;83;21309;-80
2023/10/02 14:49:17;;;;;;;13.60;6.20;;;;;;;23.76;27.63;100226.03;1690517;85;21334;-80
2023/10/02 14:52:24;;;;;;;18.07;5.72;;;;;;;23.55;27.64;100228.30;1690214;85;21334;-80
2023/10/02 14:55:27;;;;;;;13.50;5.55;;;;;;;23.57;27.50;100222.75;1690363;85;22001;-80
2023/10/02 14:58:33;;;;;;;14.20;6.42;;;;;;;23.41;27.73;100234.30;1690325;85;21379;-80
2023/10/02 15:01:40;;;;;;;22.00;5.55;;;;;;;23.46;27.78;100230.72;1661866;86;21389;-80
2023/10/02 15:04:47;;;;;;;19.48;6.30;;;;;;;23.44;27.87;100239.36;1662615;86;21343;-80
2023/10/02 15:07:55;;;;;;;16.45;6.45;;;;;;;23.47;27.95;100232.39;1663259;86;21924;-80